Time;durP1;ratioP1;P1;durP2;ratioP2;P2;SDS_P1;SDS_P2;PMS_P1;PMS_P2;Temp;Humidity;BMP_temperature;BMP_pressure;BME280_temperature;BME280_humidity;BME280_pressure;Samples;Min_cycle;Max_cycle;Signal;HPM_P1;HPM_P2
2021/08/17 00:01:29;;;;;;;0.70;0.60;;;;;;;13.30;100.00;25881.25;5036993;28;20432;-68
2021/08/17 00:03:57;;;;;;;0.70;0.70;;;;;;;13.23;100.00;26107.41;5041858;28;20558;-67
2021/08/17 00:06:24;;;;;;;2.20;0.90;;;;;;;13.29;100.00;26294.09;5056806;28;20501;-68
2021/08/17 00:08:51;;;;;;;0.73;0.70;;;;;;;13.29;100.00;26796.84;5056061;28;21063;-69
2021/08/17 00:11:19;;;;;;;0.70;0.70;;;;;;;13.33;100.00;27092.41;5038249;28;20446;-68
2021/08/17 00:13:47;;;;;;;0.70;0.70;;;;;;;13.20;100.00;27192.91;5052103;28;20460;-69
2021/08/17 00:16:15;;;;;;;0.80;0.73;;;;;;;13.21;100.00;27471.59;5037080;28;20421;-71
2021/08/17 00:18:42;;;;;;;0.70;0.60;;;;;;;13.14;100.00;27335.25;5056073;28;20427;-68
2021/08/17 00:21:09;;;;;;;0.80;0.80;;;;;;;13.04;100.00;27713.34;5053862;28;20491;-69
2021/08/17 00:23:36;;;;;;;0.70;0.70;;;;;;;12.96;100.00;27834.19;5036374;28;20499;-68
2021/08/17 00:26:04;;;;;;;0.70;0.60;;;;;;;12.89;100.00;27975.94;5038781;28;20437;-68
2021/08/17 00:28:32;;;;;;;0.70;0.70;;;;;;;12.86;100.00;27665.66;5043637;28;20478;-68
2021/08/17 00:30:59;;;;;;;0.70;0.67;;;;;;;12.85;100.00;27853.66;5038413;28;20455;-68
2021/08/17 00:33:26;;;;;;;0.70;0.60;;;;;;;12.82;100.00;27268.22;5052933;28;20489;-69
2021/08/17 00:35:54;;;;;;;0.70;0.60;;;;;;;12.81;100.00;27535.50;5056168;28;20430;-68
2021/08/17 00:38:21;;;;;;;0.70;0.63;;;;;;;12.75;100.00;26838.72;5055915;28;20545;-68
2021/08/17 00:40:48;;;;;;;0.70;0.70;;;;;;;12.72;100.00;26449.66;5054584;28;22587;-69
2021/08/17 00:43:16;;;;;;;0.70;0.70;;;;;;;12.61;100.00;26013.34;5054628;28;20502;-68
2021/08/17 00:45:44;;;;;;;0.70;0.67;;;;;;;12.62;100.00;25506.69;5054802;28;20927;-69
2021/08/17 00:48:11;;;;;;;0.70;0.70;;;;;;;12.65;100.00;25176.84;5037710;28;20493;-68
2021/08/17 00:50:44;;;;;;;0.70;0.60;;;;;;;12.56;100.00;24540.94;5054851;28;20415;-68
2021/08/17 00:53:11;;;;;;;0.70;0.70;;;;;;;12.66;100.00;24173.47;5054636;28;20439;-70
2021/08/17 00:55:39;;;;;;;0.70;0.67;;;;;;;12.58;100.00;23388.28;5055975;28;20425;-69
2021/08/17 00:58:07;;;;;;;0.70;0.70;;;;;;;12.59;100.00;23052.38;5054436;28;20521;-68
2021/08/17 01:00:37;;;;;;;0.70;0.60;;;;;;;12.66;100.00;22161.53;5054465;28;20445;-68
2021/08/17 01:03:06;;;;;;;0.70;0.70;;;;;;;12.79;100.00;21698.84;5055466;28;20454;-68
2021/08/17 01:05:33;;;;;;;0.80;0.73;;;;;;;12.79;100.00;20965.41;5054915;28;20455;-68
2021/08/17 01:08:01;;;;;;;0.90;0.90;;;;;;;12.88;100.00;20633.06;5054423;28;20455;-68
2021/08/17 01:10:29;;;;;;;0.70;0.70;;;;;;;12.84;100.00;20058.53;5054457;28;20968;-68
2021/08/17 01:12:56;;;;;;;1.63;0.80;;;;;;;12.89;100.00;19436.97;5055676;28;20412;-68
2021/08/17 01:15:26;;;;;;;0.70;0.60;;;;;;;12.88;100.00;18917.69;5035482;28;20493;-68
2021/08/17 01:17:53;;;;;;;0.70;0.70;;;;;;;12.95;100.00;18650.59;5043799;28;20508;-67
2021/08/17 01:20:22;;;;;;;0.70;0.60;;;;;;;12.91;100.00;18153.00;5055436;28;20447;-70
2021/08/17 01:22:49;;;;;;;0.70;0.60;;;;;;;12.95;100.00;17938.22;5050441;28;20999;-70
2021/08/17 01:25:17;;;;;;;0.70;0.60;;;;;;;13.05;100.00;17804.47;5052138;28;20439;-69
2021/08/17 01:27:47;;;;;;;0.70;0.63;;;;;;;13.00;100.00;17273.38;5033015;28;20433;-70
2021/08/17 01:30:18;;;;;;;0.70;0.70;;;;;;;13.05;100.00;17267.66;5036308;28;20436;-70
2021/08/17 01:32:47;;;;;;;0.70;0.60;;;;;;;12.96;100.00;16844.84;5047061;28;20793;-68
2021/08/17 01:35:17;;;;;;;0.70;0.60;;;;;;;12.96;100.00;16534.59;5052091;28;20937;-68
2021/08/17 01:37:46;;;;;;;0.70;0.60;;;;;;;13.03;100.00;16440.34;5035005;28;20468;-69
2021/08/17 01:40:13;;;;;;;0.70;0.60;;;;;;;13.03;100.00;16196.03;5053784;28;20850;-68
2021/08/17 01:42:44;;;;;;;2.60;1.67;;;;;;;12.94;100.00;15778.78;5053018;28;20482;-69
2021/08/17 01:45:15;;;;;;;0.70;0.60;;;;;;;13.02;100.00;15982.28;5044877;28;20439;-68
2021/08/17 01:47:42;;;;;;;1.00;0.90;;;;;;;12.98;100.00;15378.41;5042626;28;20435;-67
2021/08/17 01:50:11;;;;;;;0.70;0.60;;;;;;;12.96;100.00;14899.91;5053686;28;20428;-67
2021/08/17 01:52:38;;;;;;;0.70;0.60;;;;;;;12.93;100.00;14344.97;5041053;28;20798;-68
2021/08/17 01:55:07;;;;;;;0.70;0.60;;;;;;;13.01;100.00;13755.28;5036398;28;20526;-70
2021/08/17 01:57:35;;;;;;;0.70;0.70;;;;;;;13.09;100.00;13429.53;5017810;28;20459;-69
2021/08/17 02:00:03;;;;;;;0.90;0.90;;;;;;;13.07;100.00;13065.78;5040009;28;20947;-67
2021/08/17 02:02:32;;;;;;;0.80;0.70;;;;;;;13.20;100.00;12987.97;5054128;28;20413;-67
2021/08/17 02:04:59;;;;;;;0.70;0.60;;;;;;;13.22;100.00;13153.72;5054664;28;20416;-68
2021/08/17 02:07:27;;;;;;;0.70;0.60;;;;;;;13.32;100.00;13189.47;5053359;28;20452;-68
2021/08/17 02:09:54;;;;;;;0.70;0.60;;;;;;;13.20;100.00;12993.06;5052530;28;20514;-68
2021/08/17 02:12:22;;;;;;;0.70;0.60;;;;;;;13.12;100.00;12800.41;5053966;28;20468;-68
2021/08/17 02:14:49;;;;;;;0.90;0.90;;;;;;;13.05;100.00;12384.53;5053771;28;20458;-67
2021/08/17 02:17:16;;;;;;;0.97;0.97;;;;;;;13.05;100.00;12125.31;5053151;28;20460;-70
2021/08/17 02:19:46;;;;;;;0.70;0.60;;;;;;;13.02;100.00;11515.16;5053602;28;20438;-68
2021/08/17 02:22:13;;;;;;;0.70;0.60;;;;;;;12.94;100.00;10954.44;5049483;28;20444;-67
2021/08/17 02:24:40;;;;;;;0.70;0.60;;;;;;;12.90;100.00;10296.09;5052595;28;20476;-67
2021/08/17 02:27:08;;;;;;;0.87;0.87;;;;;;;12.85;100.00;9531.28;5052714;28;20493;-67
2021/08/17 02:29:35;;;;;;;0.70;0.70;;;;;;;12.85;100.00;8831.00;5053146;28;20420;-70
2021/08/17 02:32:03;;;;;;;0.70;0.60;;;;;;;12.76;100.00;7822.50;5053657;28;20786;-70
2021/08/17 02:34:30;;;;;;;1.20;0.93;;;;;;;12.73;100.00;7053.81;5054022;28;20436;-69
2021/08/17 02:36:59;;;;;;;0.73;0.70;;;;;;;12.72;100.00;6318.69;5052661;28;20428;-69
2021/08/17 02:39:26;;;;;;;0.90;0.90;;;;;;;12.68;100.00;5540.19;5040308;28;20488;-70
2021/08/17 02:41:53;;;;;;;0.70;0.70;;;;;;;12.54;100.00;4679.56;5034214;28;20441;-68
2021/08/17 02:44:20;;;;;;;1.43;0.83;;;;;;;12.56;100.00;3679.84;5033856;28;20587;-70
2021/08/17 02:46:49;;;;;;;0.70;0.60;;;;;;;12.49;100.00;2623.66;5037465;28;20870;-68
2021/08/17 02:49:16;;;;;;;0.70;0.60;;;;;;;12.48;100.00;1667.25;5040223;28;20451;-68
2021/08/17 02:51:44;;;;;;;0.70;0.70;;;;;;;12.43;100.00;700.69;5044669;28;20428;-67
2021/08/17 02:54:12;;;;;;;0.70;0.60;;;;;;;12.50;100.00;-143.28;5040200;28;20467;-68
2021/08/17 02:56:40;;;;;;;0.70;0.70;;;;;;;12.48;100.00;-1210.09;5053374;28;20439;-68
2021/08/17 02:59:07;;;;;;;0.70;0.60;;;;;;;12.40;100.00;-2241.34;5052349;28;20536;-68
2021/08/17 03:01:34;;;;;;;0.70;0.70;;;;;;;12.35;100.00;-3163.34;5053060;28;20431;-68
2021/08/17 03:04:03;;;;;;;0.70;0.60;;;;;;;12.45;100.00;-3766.75;5053260;28;20513;-67
2021/08/17 03:06:30;;;;;;;0.70;0.60;;;;;;;12.46;100.00;-4453.56;5034110;28;20459;-70
2021/08/17 03:08:57;;;;;;;0.70;0.60;;;;;;;12.40;100.00;-5122.44;5048089;28;20466;-69
2021/08/17 03:11:26;;;;;;;0.70;0.60;;;;;;;12.32;100.00;-5798.59;5052895;28;20446;-68
2021/08/17 03:13:53;;;;;;;0.70;0.60;;;;;;;12.23;100.00;-6552.53;5053217;28;21015;-67
2021/08/17 03:16:20;;;;;;;0.70;0.60;;;;;;;12.27;100.00;-6895.72;5053578;28;20432;-68
2021/08/17 03:18:47;;;;;;;0.70;0.70;;;;;;;12.26;100.00;-7732.88;5053280;28;20928;-67
2021/08/17 03:21:14;;;;;;;0.87;0.87;;;;;;;12.26;100.00;-8411.03;5051163;28;20796;-69
2021/08/17 03:23:42;;;;;;;0.70;0.60;;;;;;;12.23;100.00;-9164.47;5037165;28;20467;-68
2021/08/17 03:26:09;;;;;;;0.70;0.60;;;;;;;12.16;100.00;-9801.31;5045834;28;20451;-68
2021/08/17 03:28:38;;;;;;;0.70;0.70;;;;;;;12.00;100.00;-10522.72;5041843;28;20509;-67
2021/08/17 03:31:05;;;;;;;0.70;0.60;;;;;;;11.96;100.00;-10915.09;5033297;28;20527;-68
2021/08/17 03:33:32;;;;;;;1.33;1.23;;;;;;;11.95;100.00;-11488.94;5036698;28;20447;-69
2021/08/17 03:36:00;;;;;;;0.80;0.77;;;;;;;11.94;100.00;-12007.31;5033706;28;20494;-70
2021/08/17 03:38:27;;;;;;;0.70;0.70;;;;;;;11.88;100.00;-12411.69;5037445;28;20880;-69
2021/08/17 03:40:54;;;;;;;0.70;0.60;;;;;;;11.87;100.00;-12846.81;5053329;28;20486;-69
2021/08/17 03:43:21;;;;;;;0.70;0.60;;;;;;;11.79;100.00;-13489.66;5053293;28;20498;-69
2021/08/17 03:45:50;;;;;;;0.70;0.70;;;;;;;11.77;100.00;-13786.09;5052664;28;20424;-68
2021/08/17 03:48:17;;;;;;;1.00;0.90;;;;;;;11.71;100.00;-14293.03;5052451;28;20430;-68
2021/08/17 03:51:06;;;;;;;0.77;0.70;;;;;;;11.77;100.00;-14756.56;5043757;28;20440;-68
2021/08/17 03:53:35;;;;;;;0.70;0.70;;;;;;;11.84;100.00;-15127.34;5047170;28;20964;-68
2021/08/17 03:56:02;;;;;;;0.70;0.70;;;;;;;11.92;100.00;-15613.91;5032941;28;20793;-70
2021/08/17 03:58:29;;;;;;;0.70;0.70;;;;;;;12.02;100.00;-15867.31;5052777;28;20474;-68
2021/08/17 04:00:58;;;;;;;0.70;0.60;;;;;;;11.96;100.00;-16203.00;5051698;28;20442;-69
2021/08/17 04:03:26;;;;;;;0.70;0.60;;;;;;;11.97;100.00;-16434.44;5052750;28;20463;-68
2021/08/17 04:05:53;;;;;;;0.70;0.60;;;;;;;12.02;100.00;-16581.25;5050868;28;20480;-68
2021/08/17 04:08:21;;;;;;;0.70;0.60;;;;;;;12.07;100.00;-16763.16;5034100;28;20497;-69
2021/08/17 04:10:48;;;;;;;0.70;0.60;;;;;;;12.19;100.00;-16715.25;5032885;28;20478;-68
2021/08/17 04:13:14;;;;;;;0.70;0.60;;;;;;;12.21;100.00;-16816.22;5031532;28;20471;-67
2021/08/17 04:15:42;;;;;;;0.70;0.60;;;;;;;12.19;100.00;-16838.44;5034042;28;20503;-68
2021/08/17 04:18:10;;;;;;;0.70;0.60;;;;;;;12.27;100.00;-16875.31;5044081;28;20966;-68
2021/08/17 04:20:38;;;;;;;0.70;0.70;;;;;;;12.32;100.00;-16916.56;5067676;28;20443;-67
2021/08/17 04:23:04;;;;;;;0.70;0.50;;;;;;;12.43;100.00;-16886.19;5052222;28;20978;-68
2021/08/17 04:25:31;;;;;;;0.80;0.80;;;;;;;12.57;100.00;-16612.38;5032811;28;20421;-68
2021/08/17 04:28:04;;;;;;;0.70;0.60;;;;;;;12.60;100.00;-16502.19;5031815;28;20428;-68
2021/08/17 04:30:34;;;;;;;0.70;0.70;;;;;;;12.62;100.00;-16281.16;5032997;28;20408;-68
2021/08/17 04:33:04;;;;;;;0.70;0.60;;;;;;;12.70;100.00;-16101.56;5038221;28;20913;-68
2021/08/17 04:35:32;;;;;;;0.70;0.70;;;;;;;12.71;100.00;-16001.00;5055003;28;20454;-68
2021/08/17 04:37:59;;;;;;;1.47;1.10;;;;;;;12.78;100.00;-15800.97;5054780;28;20466;-67
2021/08/17 04:40:26;;;;;;;0.70;0.63;;;;;;;12.88;100.00;-15495.63;5056033;28;20525;-67
2021/08/17 04:42:53;;;;;;;0.97;0.97;;;;;;;13.00;100.00;-14933.69;5054812;28;20483;-68
2021/08/17 04:45:21;;;;;;;0.70;0.70;;;;;;;13.03;100.00;-14571.56;5056199;28;20448;-67
2021/08/17 04:47:51;;;;;;;0.70;0.63;;;;;;;13.11;100.00;-14088.97;5045521;28;20437;-68
2021/08/17 04:50:21;;;;;;;0.70;0.60;;;;;;;13.18;100.00;-13460.00;5035817;28;20489;-67
2021/08/17 04:52:50;;;;;;;0.70;0.60;;;;;;;13.23;100.00;-13087.75;5059243;28;20822;-67
2021/08/17 04:55:17;;;;;;;0.70;0.70;;;;;;;13.33;100.00;-12317.44;5053942;28;20459;-70
2021/08/17 04:57:49;;;;;;;0.70;0.60;;;;;;;13.27;100.00;-11953.47;5054858;28;20820;-68
2021/08/17 05:00:17;;;;;;;1.50;1.40;;;;;;;13.23;100.00;-11360.22;5046414;28;20445;-69
2021/08/17 05:02:46;;;;;;;1.57;1.47;;;;;;;13.27;100.00;-10848.63;5036201;28;20503;-68
2021/08/17 05:05:13;;;;;;;0.70;0.60;;;;;;;13.38;100.00;-10196.06;5034725;28;20476;-67
2021/08/17 05:07:41;;;;;;;0.70;0.60;;;;;;;13.28;100.00;-9839.28;5035876;28;22186;-68
2021/08/17 05:10:14;;;;;;;1.63;1.40;;;;;;;13.25;100.00;-9460.41;5052363;28;20800;-68
2021/08/17 05:12:41;;;;;;;0.70;0.70;;;;;;;13.22;100.00;-8887.19;5055651;28;20466;-68
2021/08/17 05:15:10;;;;;;;0.70;0.70;;;;;;;13.15;100.00;-8596.38;5043185;28;20954;-68
2021/08/17 05:17:42;;;;;;;0.70;0.60;;;;;;;13.23;100.00;-8152.59;5036004;28;20414;-68
2021/08/17 05:20:11;;;;;;;0.80;0.77;;;;;;;13.25;100.00;-7693.16;5035131;28;20455;-67
2021/08/17 05:22:43;;;;;;;1.00;1.00;;;;;;;13.23;100.00;-7402.56;5026875;28;20461;-69
2021/08/17 05:25:12;;;;;;;0.70;0.70;;;;;;;13.23;100.00;-7076.78;5053568;28;20472;-67
2021/08/17 05:27:40;;;;;;;0.70;0.70;;;;;;;13.29;100.00;-6672.88;5037886;28;20490;-67
2021/08/17 05:30:09;;;;;;;1.57;1.47;;;;;;;13.37;100.00;-6248.69;5053377;28;20449;-67
2021/08/17 05:33:03;;;;;;;0.90;0.90;;;;;;;13.52;100.00;-5647.56;5035333;28;20420;-67
2021/08/17 05:35:39;;;;;;;0.70;0.60;;;;;;;13.50;100.00;-4949.72;5036149;28;20834;-67
2021/08/17 05:38:06;;;;;;;0.70;0.70;;;;;;;13.56;100.00;-4529.97;5035227;28;20448;-67
2021/08/17 05:40:34;;;;;;;0.70;0.70;;;;;;;13.81;100.00;-3768.47;5053402;28;20456;-68
2021/08/17 05:43:08;;;;;;;1.00;1.00;;;;;;;13.78;100.00;-3239.53;5054998;28;20943;-68
2021/08/17 05:45:56;;;;;;;2.40;2.30;;;;;;;13.79;100.00;-2528.22;5053415;28;20922;-68
2021/08/17 05:48:23;;;;;;;0.70;0.60;;;;;;;13.85;100.00;-1786.16;5054867;28;20418;-67
2021/08/17 05:50:50;;;;;;;0.70;0.60;;;;;;;13.84;100.00;-1145.44;5054320;28;20496;-68
2021/08/17 05:53:17;;;;;;;0.97;0.97;;;;;;;13.86;100.00;-793.25;5044519;28;20555;-69
2021/08/17 05:55:45;;;;;;;1.20;0.80;;;;;;;14.12;100.00;262.56;5034649;28;20425;-69
2021/08/17 05:58:12;;;;;;;0.70;0.70;;;;;;;14.15;100.00;792.69;5035302;28;20918;-69
2021/08/17 06:00:39;;;;;;;0.70;0.70;;;;;;;14.34;100.00;1778.50;5035653;28;20509;-68
2021/08/17 06:03:07;;;;;;;0.70;0.70;;;;;;;14.40;100.00;2436.34;5050270;28;20441;-67
2021/08/17 06:05:34;;;;;;;0.70;0.70;;;;;;;14.60;100.00;3431.25;5054101;28;20462;-67
2021/08/17 06:08:01;;;;;;;0.70;0.70;;;;;;;14.76;100.00;4479.88;5054368;28;20486;-67
2021/08/17 06:10:29;;;;;;;0.70;0.60;;;;;;;14.82;100.00;5161.84;5045169;28;20449;-68
2021/08/17 06:12:57;;;;;;;0.70;0.70;;;;;;;15.16;100.00;6018.94;5044006;28;20464;-68
2021/08/17 06:15:25;;;;;;;0.70;0.63;;;;;;;15.21;100.00;6890.03;5053193;28;20935;-69
2021/08/17 06:17:52;;;;;;;0.70;0.67;;;;;;;15.29;100.00;7772.06;5036099;28;20443;-69
2021/08/17 06:20:20;;;;;;;0.73;0.70;;;;;;;15.19;100.00;8281.75;5046931;28;20451;-70
2021/08/17 06:22:49;;;;;;;1.33;1.23;;;;;;;15.36;100.00;9398.03;5033561;28;20535;-67
2021/08/17 06:25:16;;;;;;;0.70;0.67;;;;;;;15.63;100.00;10459.09;5052604;28;20458;-68
2021/08/17 06:27:43;;;;;;;0.70;0.70;;;;;;;15.81;100.00;11603.28;5051139;28;20441;-68
2021/08/17 06:30:12;;;;;;;0.70;0.67;;;;;;;15.92;100.00;12394.69;5045546;28;20438;-67
2021/08/17 06:32:53;;;;;;;0.80;0.70;;;;;;;16.00;100.00;13134.22;5032226;28;20446;-70
2021/08/17 06:35:20;;;;;;;1.00;0.90;;;;;;;15.87;100.00;12969.88;5043445;28;21034;-69
2021/08/17 06:37:48;;;;;;;0.70;0.70;;;;;;;15.98;100.00;13756.69;5051090;28;20844;-68
2021/08/17 06:40:17;;;;;;;1.80;1.70;;;;;;;16.09;100.00;14216.88;5052405;28;20495;-68
2021/08/17 06:42:45;;;;;;;0.70;0.60;;;;;;;16.38;100.00;14741.81;5054232;28;20434;-69
2021/08/17 06:45:14;;;;;;;0.80;0.70;;;;;;;16.41;100.00;14157.56;5053844;28;21027;-68
2021/08/17 06:47:45;;;;;;;0.80;0.80;;;;;;;16.72;100.00;14102.53;5048809;28;20436;-68
2021/08/17 06:50:32;;;;;;;2.10;1.37;;;;;;;16.67;100.00;11602.22;5046381;28;20437;-68
2021/08/17 06:53:00;;;;;;;0.80;0.77;;;;;;;16.81;100.00;8888.63;5052776;28;20448;-69
2021/08/17 06:55:29;;;;;;;1.63;1.53;;;;;;;17.34;100.00;4470.06;5034478;28;20462;-69
2021/08/17 06:57:56;;;;;;;0.80;0.70;;;;;;;17.24;100.00;-3050.84;5048522;28;20432;-68
2021/08/17 07:00:25;;;;;;;1.73;1.20;;;;;;;17.55;100.00;-11849.06;5040063;28;21012;-70
2021/08/17 07:02:52;;;;;;;0.80;0.80;;;;;;;17.55;100.00;-20170.78;5033673;28;20768;-68
2021/08/17 07:05:32;;;;;;;0.70;0.60;;;;;;;17.65;100.00;-21160.50;5033541;28;20562;-69
2021/08/17 07:07:59;;;;;;;0.70;0.60;;;;;;;17.45;100.00;-21155.16;5044527;28;20502;-69
2021/08/17 07:10:26;;;;;;;0.70;0.60;;;;;;;17.87;100.00;-21166.56;5035194;28;20445;-69
2021/08/17 07:13:13;;;;;;;1.93;1.60;;;;;;;17.96;100.00;-21168.88;5032188;28;20436;-70
2021/08/17 07:15:42;;;;;;;0.70;0.70;;;;;;;17.68;100.00;-21161.47;5045073;28;20523;-70
2021/08/17 07:18:10;;;;;;;0.80;0.70;;;;;;;17.46;100.00;-21155.44;5031946;28;20970;-70
2021/08/17 07:20:39;;;;;;;0.80;0.80;;;;;;;17.40;100.00;-21153.94;5032160;28;20977;-69
2021/08/17 07:23:07;;;;;;;0.70;0.70;;;;;;;17.49;100.00;-21156.41;5042469;28;20459;-69
2021/08/17 07:25:35;;;;;;;0.90;0.90;;;;;;;17.57;100.00;-21158.47;5041674;28;20525;-69
2021/08/17 07:28:03;;;;;;;0.80;0.70;;;;;;;17.72;100.00;-21162.56;5033218;28;20497;-67
2021/08/17 07:30:30;;;;;;;1.87;1.77;;;;;;;17.97;100.00;-21169.28;5045143;28;20435;-69
2021/08/17 07:32:59;;;;;;;0.80;0.70;;;;;;;18.10;100.00;-21172.84;5043030;28;20936;-69
2021/08/17 07:35:26;;;;;;;0.70;0.70;;;;;;;18.09;100.00;-21172.44;5053036;28;20409;-69
2021/08/17 07:37:54;;;;;;;0.80;0.80;;;;;;;17.98;100.00;-21169.44;5051703;28;20888;-68
2021/08/17 07:40:23;;;;;;;1.37;0.97;;;;;;;17.93;100.00;-21168.19;5045914;28;20750;-68
2021/08/17 07:42:50;;;;;;;0.70;0.63;;;;;;;17.80;100.00;-21164.63;5041739;28;20439;-68
2021/08/17 07:45:20;;;;;;;0.80;0.80;;;;;;;17.78;100.00;-21164.22;5047798;28;20456;-70
2021/08/17 07:48:11;;;;;;;1.20;1.10;;;;;;;17.58;100.00;-21158.72;5049913;28;20531;-70
2021/08/17 07:50:39;;;;;;;0.80;0.80;;;;;;;17.90;100.00;-21167.25;5044189;28;20471;-70
2021/08/17 07:53:07;;;;;;;0.80;0.80;;;;;;;17.60;100.00;-21159.41;5032248;28;20456;-73
2021/08/17 07:55:35;;;;;;;6.20;1.40;;;;;;;17.46;100.00;-21155.59;5032159;28;20436;-68
2021/08/17 07:58:02;;;;;;;0.90;0.90;;;;;;;17.37;100.00;-21153.09;5033197;28;20415;-68
2021/08/17 08:00:29;;;;;;;0.93;0.90;;;;;;;17.32;100.00;-21151.88;5034505;28;20506;-70
2021/08/17 08:02:57;;;;;;;0.97;0.93;;;;;;;17.30;100.00;-21151.31;5052785;28;20432;-68
2021/08/17 08:05:26;;;;;;;0.80;0.70;;;;;;;17.52;100.00;-21157.09;5051235;28;20458;-68
2021/08/17 08:07:53;;;;;;;0.80;0.80;;;;;;;17.71;100.00;-21162.28;5044161;28;20462;-69
2021/08/17 08:10:20;;;;;;;0.70;0.70;;;;;;;17.86;100.00;-21166.41;5052695;28;20438;-69
2021/08/17 08:12:48;;;;;;;0.70;0.60;;;;;;;17.90;100.00;-21167.25;5056382;28;20460;-70
2021/08/17 08:15:16;;;;;;;0.80;0.80;;;;;;;18.10;100.00;-21172.84;5045886;28;21027;-71
2021/08/17 08:17:43;;;;;;;1.10;1.00;;;;;;;18.83;100.00;-21192.44;5037310;28;20443;-70
2021/08/17 08:20:12;;;;;;;0.70;0.70;;;;;;;18.98;100.00;-21196.25;5024273;28;20447;-71
2021/08/17 08:22:41;;;;;;;1.53;1.43;;;;;;;19.17;100.00;-21201.47;5054526;28;20520;-71
2021/08/17 08:25:09;;;;;;;1.27;1.07;;;;;;;19.23;100.00;-21203.09;5055253;28;20443;-70
2021/08/17 08:27:39;;;;;;;0.80;0.70;;;;;;;19.00;100.00;-21196.81;5053830;28;20809;-71
2021/08/17 08:30:11;;;;;;;0.80;0.70;;;;;;;19.34;100.00;-21205.84;5055128;28;20423;-70
2021/08/17 08:32:38;;;;;;;0.80;0.70;;;;;;;19.30;100.00;-21205.03;5036707;28;20498;-72
2021/08/17 08:35:07;;;;;;;0.80;0.70;;;;;;;18.80;100.00;-21191.63;5034805;28;20532;-70
2021/08/17 08:37:34;;;;;;;0.80;0.70;;;;;;;18.94;100.00;-21195.31;5036897;28;20429;-69
2021/08/17 08:40:04;;;;;;;1.20;1.10;;;;;;;18.69;100.00;-21188.59;5035098;28;20445;-69
2021/08/17 08:42:33;;;;;;;0.70;0.70;;;;;;;19.01;100.00;-21197.09;5036208;28;20448;-68
2021/08/17 08:45:01;;;;;;;0.80;0.70;;;;;;;19.16;100.00;-21201.06;5044763;28;20936;-70
2021/08/17 08:47:28;;;;;;;0.80;0.70;;;;;;;18.94;100.00;-21195.16;5056914;28;20442;-70
2021/08/17 08:50:18;;;;;;;0.70;0.60;;;;;;;18.92;100.00;-21194.63;5047487;28;20526;-68
2021/08/17 08:52:46;;;;;;;0.77;0.70;;;;;;;19.46;100.00;-21209.25;5056812;28;20448;-70
2021/08/17 08:55:15;;;;;;;1.10;1.00;;;;;;;19.59;100.00;-21212.69;5059741;28;20432;-69
2021/08/17 08:57:42;;;;;;;1.13;1.03;;;;;;;19.65;100.00;-21214.31;5056115;28;20435;-70
2021/08/17 09:00:10;;;;;;;1.97;1.47;;;;;;;19.46;100.00;-21209.13;5055667;28;20405;-69
2021/08/17 09:02:37;;;;;;;1.10;1.00;;;;;;;19.15;100.00;-21200.78;5055808;28;20985;-69
2021/08/17 09:05:06;;;;;;;0.70;0.70;;;;;;;19.70;100.00;-21215.69;5055769;28;20472;-68
2021/08/17 09:07:42;;;;;;;0.80;0.70;;;;;;;20.15;100.00;-21227.72;5054157;28;20467;-70
2021/08/17 09:10:13;;;;;;;1.77;1.37;;;;;;;20.44;100.00;-21235.38;5055256;28;20796;-69
2021/08/17 09:12:44;;;;;;;1.10;1.00;;;;;;;20.55;100.00;-21238.22;5049005;28;20448;-70
2021/08/17 09:15:19;;;;;;;1.27;0.93;;;;;;;20.46;100.00;-21236.03;5037218;28;20455;-70
2021/08/17 09:17:57;;;;;;;1.07;0.90;;;;;;;20.37;100.00;-21233.44;5034845;28;20413;-71
2021/08/17 09:20:30;;;;;;;0.70;0.70;;;;;;;20.72;100.00;-21242.88;5034288;28;20387;-71
2021/08/17 09:22:58;;;;;;;2.10;1.00;;;;;;;20.56;100.00;-21238.66;5052529;28;20471;-70
2021/08/17 09:25:33;;;;;;;0.70;0.70;;;;;;;20.53;100.00;-21237.81;5054122;28;20484;-70
2021/08/17 09:28:31;;;;;;;1.00;0.90;;;;;;;20.79;100.00;-21244.66;5054865;28;20434;-70
2021/08/17 09:30:59;;;;;;;2.70;1.83;;;;;;;20.21;100.00;-21229.34;5053013;28;20394;-70
2021/08/17 09:33:39;;;;;;;1.80;1.67;;;;;;;20.10;100.00;-21226.34;5035484;28;20455;-73
2021/08/17 09:36:08;;;;;;;1.40;0.97;;;;;;;20.16;100.00;-21228.00;5034653;28;20896;-71
2021/08/17 09:38:36;;;;;;;1.40;1.30;;;;;;;20.18;100.00;-21228.53;5035502;28;20505;-70
2021/08/17 09:41:19;;;;;;;0.90;0.80;;;;;;;20.39;100.00;-21234.13;5035468;28;20936;-69
2021/08/17 09:43:59;;;;;;;0.70;0.70;;;;;;;20.12;100.00;-21226.91;5035994;28;20387;-69
2021/08/17 09:46:28;;;;;;;0.80;0.80;;;;;;;20.10;100.00;-21226.22;5036045;28;20458;-70
2021/08/17 09:48:56;;;;;;;1.53;1.00;;;;;;;19.89;100.00;-21220.63;5048530;28;20399;-70
2021/08/17 09:51:34;;;;;;;0.70;0.60;;;;;;;19.98;100.00;-21223.06;5054797;28;20440;-70
2021/08/17 09:54:12;;;;;;;0.97;0.87;;;;;;;19.31;100.00;-21205.28;5055402;28;20426;-70
2021/08/17 09:56:39;;;;;;;7.40;1.00;;;;;;;19.83;100.00;-21218.97;5037275;28;20448;-70
2021/08/17 09:59:17;;;;;;;0.90;0.80;;;;;;;19.86;100.00;-21219.78;5054832;28;20399;-70
2021/08/17 10:01:47;;;;;;;1.00;0.80;;;;;;;19.90;100.00;-21220.88;5052297;28;20864;-71
2021/08/17 10:04:17;;;;;;;0.80;0.60;;;;;;;19.50;100.00;-21210.22;5044918;28;20416;-70
2021/08/17 10:06:44;;;;;;;0.80;0.80;;;;;;;18.97;100.00;-21196.13;5034395;28;20947;-69
2021/08/17 10:09:14;;;;;;;3.20;3.00;;;;;;;19.36;100.00;-21206.38;5034597;28;20412;-70
2021/08/17 10:11:43;;;;;;;0.80;0.77;;;;;;;19.24;100.00;-21203.25;5034602;28;20416;-70
2021/08/17 10:14:12;;;;;;;0.80;0.70;;;;;;;19.51;100.00;-21210.50;5034513;28;20403;-70
2021/08/17 10:16:41;;;;;;;0.83;0.80;;;;;;;19.30;100.00;-21205.03;5040811;28;20403;-69
2021/08/17 10:19:09;;;;;;;1.00;0.90;;;;;;;19.04;100.00;-21197.91;5054172;28;20848;-70
2021/08/17 10:21:39;;;;;;;0.80;0.70;;;;;;;18.94;100.00;-21195.31;5052919;28;20585;-71
2021/08/17 10:24:26;;;;;;;0.80;0.70;;;;;;;19.13;100.00;-21200.38;5054413;28;20448;-70
2021/08/17 10:27:21;;;;;;;0.80;0.70;;;;;;;18.94;100.00;-21195.31;5052910;28;20806;-70
2021/08/17 10:30:10;;;;;;;1.17;1.07;;;;;;;19.09;100.00;-21199.13;5054578;28;20439;-70
2021/08/17 10:32:49;;;;;;;1.27;1.17;;;;;;;19.43;100.00;-21208.31;5046914;28;20415;-70
2021/08/17 10:35:54;;;;;;;0.93;0.90;;;;;;;19.13;100.00;-21200.22;5053087;28;20440;-70
2021/08/17 10:38:40;;;;;;;0.80;0.70;;;;;;;19.08;100.00;-21199.00;5054221;28;20746;-70
2021/08/17 10:41:11;;;;;;;0.70;0.70;;;;;;;19.05;100.00;-21198.19;5054073;28;20800;-74
2021/08/17 10:44:13;;;;;;;0.87;0.87;;;;;;;19.10;100.00;-21199.56;5054119;28;20408;-69
2021/08/17 10:47:05;;;;;;;0.80;0.80;;;;;;;19.30;100.00;-21204.88;5052866;28;20898;-69
2021/08/17 10:49:50;;;;;;;1.47;0.80;;;;;;;19.30;100.00;-21204.88;5053988;28;20754;-69
2021/08/17 10:52:38;;;;;;;0.70;0.70;;;;;;;19.44;100.00;-21208.56;5052353;28;20443;-70
2021/08/17 10:55:37;;;;;;;0.80;0.80;;;;;;;19.22;100.00;-21202.84;5053936;28;20453;-70
2021/08/17 10:58:07;;;;;;;0.70;0.70;;;;;;;19.06;100.00;-21198.44;5034314;28;20417;-70
2021/08/17 11:00:55;;;;;;;0.80;0.70;;;;;;;19.28;100.00;-21204.47;5050022;28;20432;-70
2021/08/17 11:03:48;;;;;;;0.70;0.60;;;;;;;18.98;100.00;-21196.25;5049149;28;20433;-69
2021/08/17 11:06:37;;;;;;;0.80;0.80;;;;;;;19.00;100.00;-21196.94;5033572;28;20935;-71
2021/08/17 11:09:08;;;;;;;0.80;0.70;;;;;;;19.41;100.00;-21207.75;5042435;28;20539;-69
2021/08/17 11:11:36;;;;;;;1.07;0.97;;;;;;;19.19;100.00;-21202.00;5045369;28;20845;-70
2021/08/17 11:14:11;;;;;;;0.80;0.70;;;;;;;19.25;100.00;-21203.66;5031979;28;20458;-70
2021/08/17 11:16:44;;;;;;;0.90;0.90;;;;;;;19.15;100.00;-21200.78;5038678;28;20493;-69
2021/08/17 11:19:12;;;;;;;1.10;1.00;;;;;;;19.10;100.00;-21199.41;5052415;28;20444;-69
2021/08/17 11:21:41;;;;;;;1.33;1.23;;;;;;;19.01;100.00;-21197.09;5053096;28;20424;-70
2021/08/17 11:24:15;;;;;;;0.73;0.70;;;;;;;18.78;100.00;-21191.06;5053233;28;20455;-70
2021/08/17 11:26:45;;;;;;;1.00;0.90;;;;;;;18.78;100.00;-21190.94;5052609;28;20459;-71
2021/08/17 11:29:30;;;;;;;0.70;0.70;;;;;;;18.39;100.00;-21180.53;5032159;28;20944;-71
2021/08/17 11:31:59;;;;;;;1.10;1.00;;;;;;;18.09;100.00;-21172.44;5034892;28;20416;-70
2021/08/17 11:34:30;;;;;;;1.40;0.90;;;;;;;18.18;100.00;-21174.78;5053141;28;20411;-70
2021/08/17 11:37:00;;;;;;;0.87;0.87;;;;;;;17.90;100.00;-21167.25;5054099;28;20492;-71